Aérodrome :
LOGIN :

S'inscrire | Disclaimer

   EN    FR    IT 

 










Légende :    VFR   VFR Marginal   IFR   IFR Intensif   IFR Très Intensif
Visi : 
Plafond : 
>= 8 km
>= 3000ft
5 à 8 km
1000 à 3000 ft
1500m à 5 km
500 à 1000 ft
800 à 1500m
200 à 500 ft
< 800m
< 200 ft
Symboles :   Orages  Brouillard  Fortes neiges  Fortes précipitations  Vent > 20 kt
SIGMETs :   Divers  Orages  Givrage  Turbulence  Onde Orograph.  Cendres Volcan.







- Altitude de l'aérodrome : 779 ft
- Code IATA : CMF
- Voir les cartes d'approche


LFLB - Chambery / Aix-Les-Bains

DERNIER METAR :
  • 011730Z AUTO 22013KT 9000 -RA BKN047 BKN054 OVC064 07/05 Q1016 NOSIG

METARs EXPIRÉS :
  • 011700Z AUTO 22010KT 9999 -RA FEW034 BKN056 OVC066 07/05 Q1016 TEMPO 4000 RA
  • 011630Z AUTO 22010KT 180V260 9999 -RA FEW044 BKN056 OVC068 08/05 Q1016 TEMPO 4000 RA
  • 011600Z AUTO 21008KT 9999 -RA FEW044 BKN054 OVC064 08/04 Q1016 NOSIG
  • 011530Z AUTO 20010KT 9999 -RA OVC060 09/03 Q1015 NOSIG
  • 011500Z AUTO 19012KT 160V230 9999 FEW047 BKN058 OVC070 09/03 Q1015 NOSIG

TAF TAF LFLB
Valide du 01 à 18h jusqu'au 02 à 18h UTC


011700Z 0118/0218 21010KT 8000 -RA OVC040
PROB40
TEMPO 0203/0208 4000 RA BR
BECMG 0209/0211 VRB03KT NSW BKN030
BECMG 0212/0215 CAVOK
Pas de NOTAMs connus pour ce terrain.
6 SIGMETs publiés pour la FIR Marseille (LFMM) :
 
Onde orographique forte
LFMM SIGMET 17 VALID 011800/012200 LFPW
LFMM MARSEILLE FIR/UIR SEV MTW FCST E OF E00845 SFC/FL250 STNR NC=
Onde orographique forte
LFMM SIGMET 16 VALID 011800/012200 LFPW
LFMM MARSEILLE FIR/UIR SEV MTW FCST WI N4600 E00700 - N4400 E00700 - N4400 E00715 - N4330 E00700 - N4400 E00615 - N4600 E00645 SFC/FL200 STNR NC=
Turbulence forte
LFMM SIGMET 15 VALID 011800/012200 LFPW
LFMM MARSEILLE FIR/UIR SEV TURB OBS WI N4345 E00730 - N4315 E00945 - N4115 E00945 - N4115 E00845 - N4300 E00600 - N4345 E00645 SFC/FL050 STNR NC=
Onde orographique forte
LFMM SIGMET 14 VALID 011500/011800 LFPW
LFMM MARSEILLE FIR/UIR SEV MTW FCST E OF E00845 SFC/FL250 STNR NC=
Onde orographique forte
LFMM SIGMET 13 VALID 011500/011800 LFPW
LFMM MARSEILLE FIR/UIR SEV MTW FCST WI N4600 E00700 - N4400 E00700 - N4400 E00715 - N4330 E00700 - N4400 E00615 - N4600 E00645 SFC/FL200 STNR NC=
Turbulence forte
LFMM SIGMET 12 VALID 011500/011800 LFPW
LFMM MARSEILLE FIR/UIR SEV TURB OBS WI N4345 E00730 - N4315 E00945 - N4115 E00945 - N4115 E00900 - N4300 E00630 SFC/FL050 STNR NC=



MET'MAP, la Météo Aéronautique d'un coup d'oeil ! - Copyright ORBIFLY Décembre 2007 - Disclaimer

ORBIFLY MET'MAP TEAM :

Programmation & Développement : Alexandra Zaïnal
Conception & Développement : Baudouin d'Aumeries
Co-Programmation & Développement : Marc-Olivier Méhu
Soutien technique & logistique : Manuel Goepfert

Contact : metmap@orbifly.com




SOURCES & CREDITS :

   NOAA